Time;durP1;ratioP1;P1;durP2;ratioP2;P2;SDS_P1;SDS_P2;PMS_P1;PMS_P2;Temp;Humidity;BMP_temperature;BMP_pressure;BME280_temperature;BME280_humidity;BME280_pressure;Samples;Min_cycle;Max_cycle;Signal;HPM_P1;HPM_P2
2022/08/07 00:01:01;;;;;;;3.10;1.92;;;;;;;;;;5116077;28;20337;-75
2022/08/07 00:03:27;;;;;;;3.92;2.60;;;;;;;;;;5115912;28;20031;-74
2022/08/07 00:05:53;;;;;;;6.15;3.15;;;;;;;;;;5115865;28;20035;-74
2022/08/07 00:08:21;;;;;;;5.95;2.90;;;;;;;;;;5115880;28;20080;-75
2022/08/07 00:10:47;;;;;;;5.15;3.00;;;;;;;;;;5115968;28;20043;-74
2022/08/07 00:13:13;;;;;;;8.73;3.25;;;;;;;;;;5115571;28;20031;-74
2022/08/07 00:15:39;;;;;;;8.27;3.60;;;;;;;;;;5115850;28;20035;-75
2022/08/07 00:18:07;;;;;;;9.30;3.65;;;;;;;;;;5115588;28;20081;-75
2022/08/07 00:20:34;;;;;;;7.32;3.15;;;;;;;;;;5115718;28;20115;-75
2022/08/07 00:23:00;;;;;;;4.28;2.85;;;;;;;;;;5115400;28;20024;-75
2022/08/07 00:25:26;;;;;;;6.78;3.15;;;;;;;;;;5115665;28;20028;-75
2022/08/07 00:27:52;;;;;;;8.43;2.72;;;;;;;;;;5115456;28;20024;-75
2022/08/07 00:30:18;;;;;;;5.03;2.55;;;;;;;;;;5114114;28;20036;-74
2022/08/07 00:32:47;;;;;;;8.88;3.38;;;;;;;;;;5115280;28;20427;-75
2022/08/07 00:35:13;;;;;;;4.45;2.28;;;;;;;;;;5115385;28;20466;-75
2022/08/07 00:37:39;;;;;;;3.50;2.30;;;;;;;;;;5115382;28;20035;-75
2022/08/07 00:40:05;;;;;;;4.57;2.55;;;;;;;;;;5115324;28;20350;-74
2022/08/07 00:42:32;;;;;;;6.18;2.97;;;;;;;;;;5115176;28;20152;-76
2022/08/07 00:44:58;;;;;;;7.03;2.70;;;;;;;;;;5115169;28;20031;-75
2022/08/07 00:47:24;;;;;;;4.93;2.40;;;;;;;;;;5114857;28;20039;-75
2022/08/07 00:49:50;;;;;;;3.85;2.58;;;;;;;;;;5115179;28;20055;-74
2022/08/07 00:52:16;;;;;;;4.78;2.47;;;;;;;;;;5114648;28;20089;-74
2022/08/07 00:54:42;;;;;;;3.05;2.33;;;;;;;;;;5114995;28;20024;-74
2022/08/07 00:57:09;;;;;;;4.35;2.40;;;;;;;;;;5114742;28;20032;-74
2022/08/07 00:59:36;;;;;;;3.90;2.30;;;;;;;;;;5114883;28;20107;-74
2022/08/07 01:02:03;;;;;;;5.25;2.50;;;;;;;;;;5114934;28;20037;-75
2022/08/07 01:04:29;;;;;;;3.78;2.47;;;;;;;;;;5114823;28;20020;-75
2022/08/07 01:06:55;;;;;;;6.75;2.40;;;;;;;;;;5114794;28;20024;-75
2022/08/07 01:09:22;;;;;;;4.85;2.40;;;;;;;;;;5113619;28;20024;-74
2022/08/07 01:11:50;;;;;;;4.95;2.58;;;;;;;;;;5114563;28;20030;-74
2022/08/07 01:14:16;;;;;;;4.57;2.30;;;;;;;;;;5114692;28;20028;-75
2022/08/07 01:16:42;;;;;;;3.70;2.45;;;;;;;;;;5114470;28;20039;-74
2022/08/07 01:19:08;;;;;;;5.35;2.42;;;;;;;;;;5114524;28;20027;-74
2022/08/07 01:21:34;;;;;;;5.75;2.10;;;;;;;;;;5114508;28;20047;-74
2022/08/07 01:24:01;;;;;;;4.13;2.20;;;;;;;;;;5114293;28;20024;-74
2022/08/07 01:26:27;;;;;;;4.20;2.47;;;;;;;;;;5114412;28;20031;-74
2022/08/07 01:28:54;;;;;;;6.60;2.40;;;;;;;;;;5114305;28;20082;-75
2022/08/07 01:31:26;;;;;;;4.10;2.42;;;;;;;;;;5114346;28;20473;-75
2022/08/07 01:33:52;;;;;;;4.47;2.28;;;;;;;;;;5114158;28;20513;-75
2022/08/07 01:36:19;;;;;;;4.43;2.60;;;;;;;;;;5114178;28;20035;-74
2022/08/07 01:38:45;;;;;;;4.18;2.80;;;;;;;;;;5114111;28;20028;-74
2022/08/07 01:41:11;;;;;;;7.93;2.80;;;;;;;;;;5114222;28;20031;-75
2022/08/07 01:43:37;;;;;;;5.05;2.65;;;;;;;;;;5114034;28;20533;-75
2022/08/07 01:46:04;;;;;;;5.07;2.33;;;;;;;;;;5112736;28;20027;-74
2022/08/07 01:48:31;;;;;;;4.88;2.60;;;;;;;;;;5113855;28;20027;-74
2022/08/07 01:51:02;;;;;;;3.53;2.33;;;;;;;;;;5113959;28;20062;-74
2022/08/07 01:53:29;;;;;;;5.40;2.17;;;;;;;;;;5113725;28;20052;-74
2022/08/07 01:55:56;;;;;;;3.30;2.42;;;;;;;;;;5113798;28;20049;-75
2022/08/07 01:58:23;;;;;;;8.00;3.05;;;;;;;;;;5113663;28;20020;-75
2022/08/07 02:00:52;;;;;;;5.55;3.00;;;;;;;;;;5113787;28;20110;-75
2022/08/07 02:03:20;;;;;;;5.68;2.72;;;;;;;;;;5113590;28;20109;-74
2022/08/07 02:05:49;;;;;;;4.20;2.38;;;;;;;;;;5113599;28;20028;-75
2022/08/07 02:08:17;;;;;;;4.22;2.60;;;;;;;;;;5113554;28;20024;-74
2022/08/07 02:10:44;;;;;;;4.45;2.85;;;;;;;;;;5113492;28;20454;-75
2022/08/07 02:13:12;;;;;;;3.60;2.35;;;;;;;;;;5113230;28;20113;-75
2022/08/07 02:15:39;;;;;;;4.53;2.90;;;;;;;;;;5113459;28;20024;-74
2022/08/07 02:18:06;;;;;;;4.18;2.45;;;;;;;;;;5113178;28;20016;-75
2022/08/07 02:20:32;;;;;;;3.00;2.28;;;;;;;;;;5113164;28;20485;-75
2022/08/07 02:23:03;;;;;;;8.07;3.17;;;;;;;;;;5113089;28;20032;-74
2022/08/07 02:25:33;;;;;;;5.75;3.30;;;;;;;;;;5111857;28;20596;-75
2022/08/07 02:28:00;;;;;;;5.00;3.30;;;;;;;;;;5113188;28;20461;-74
2022/08/07 02:30:27;;;;;;;4.30;2.60;;;;;;;;;;5113093;28;20487;-74
2022/08/07 02:32:53;;;;;;;7.10;3.47;;;;;;;;;;5112918;28;20031;-74
2022/08/07 02:35:20;;;;;;;7.70;4.00;;;;;;;;;;5113052;28;20020;-74
2022/08/07 02:37:47;;;;;;;7.35;4.28;;;;;;;;;;5112970;28;20043;-75
2022/08/07 02:40:13;;;;;;;7.75;3.88;;;;;;;;;;5113120;28;20053;-74
2022/08/07 02:42:39;;;;;;;9.05;3.67;;;;;;;;;;5112777;28;20031;-74
2022/08/07 02:45:06;;;;;;;7.35;4.55;;;;;;;;;;5112858;28;20031;-75
2022/08/07 02:47:32;;;;;;;6.90;3.63;;;;;;;;;;5112766;28;20334;-74
2022/08/07 02:49:58;;;;;;;6.47;3.83;;;;;;;;;;5112984;28;20028;-75
2022/08/07 02:52:30;;;;;;;6.07;3.40;;;;;;;;;;5112559;28;20059;-75
2022/08/07 02:54:58;;;;;;;6.37;3.63;;;;;;;;;;5112798;28;20078;-74
2022/08/07 02:57:25;;;;;;;7.07;3.90;;;;;;;;;;5112384;28;20261;-74
2022/08/07 02:59:51;;;;;;;7.25;3.63;;;;;;;;;;5112701;28;20096;-74
2022/08/07 03:02:18;;;;;;;7.68;3.95;;;;;;;;;;5112438;28;20076;-74
2022/08/07 03:04:46;;;;;;;6.20;3.78;;;;;;;;;;5112493;28;20378;-75
2022/08/07 03:07:12;;;;;;;5.45;3.60;;;;;;;;;;5112542;28;20020;-75
2022/08/07 03:09:39;;;;;;;6.28;3.78;;;;;;;;;;5112535;28;20354;-75
2022/08/07 03:12:06;;;;;;;7.88;3.75;;;;;;;;;;5093913;28;20119;-75
2022/08/07 03:14:35;;;;;;;7.28;3.92;;;;;;;;;;5112317;28;20027;-75
2022/08/07 03:17:01;;;;;;;7.82;3.97;;;;;;;;;;5112463;28;20023;-75
2022/08/07 03:19:27;;;;;;;10.05;4.75;;;;;;;;;;5112177;28;20381;-74
2022/08/07 03:21:54;;;;;;;7.45;4.30;;;;;;;;;;5112086;28;20031;-75
2022/08/07 03:24:20;;;;;;;8.68;4.88;;;;;;;;;;5112094;28;20024;-75
2022/08/07 03:26:50;;;;;;;8.40;5.72;;;;;;;;;;5112224;28;20045;-74
2022/08/07 03:29:17;;;;;;;9.98;5.25;;;;;;;;;;5112264;28;20504;-75
2022/08/07 03:31:44;;;;;;;10.98;6.05;;;;;;;;;;5112700;28;20103;-75
2022/08/07 03:34:12;;;;;;;9.18;5.88;;;;;;;;;;5116445;28;20031;-74
2022/08/07 03:36:39;;;;;;;9.85;5.05;;;;;;;;;;5116499;28;20031;-74
2022/08/07 03:39:07;;;;;;;10.60;5.53;;;;;;;;;;5116410;28;20095;-74
2022/08/07 03:41:33;;;;;;;9.60;5.53;;;;;;;;;;5116569;28;20027;-74
2022/08/07 03:44:00;;;;;;;8.45;4.97;;;;;;;;;;5116376;28;20027;-75
2022/08/07 03:46:26;;;;;;;9.93;5.45;;;;;;;;;;5115000;28;20405;-74
2022/08/07 03:48:52;;;;;;;10.80;5.18;;;;;;;;;;5116078;28;20055;-74
2022/08/07 03:51:20;;;;;;;7.53;4.97;;;;;;;;;;5116106;28;20024;-74
2022/08/07 03:53:46;;;;;;;7.35;5.13;;;;;;;;;;5116124;28;20172;-74
2022/08/07 03:56:14;;;;;;;8.20;4.88;;;;;;;;;;5116080;28;20456;-74
2022/08/07 03:58:40;;;;;;;7.40;5.07;;;;;;;;;;5116087;28;20042;-74
2022/08/07 04:01:08;;;;;;;10.85;5.30;;;;;;;;;;5116088;28;20024;-74
2022/08/07 04:03:34;;;;;;;8.18;4.95;;;;;;;;;;5115975;28;20027;-75
2022/08/07 04:06:00;;;;;;;9.63;5.00;;;;;;;;;;5115975;28;20035;-74
2022/08/07 04:08:27;;;;;;;9.98;5.03;;;;;;;;;;5115851;28;20103;-74
2022/08/07 04:10:53;;;;;;;7.25;4.32;;;;;;;;;;5115823;28;20114;-74
2022/08/07 04:13:20;;;;;;;11.27;4.60;;;;;;;;;;5115440;28;20326;-75
2022/08/07 04:15:46;;;;;;;7.47;5.38;;;;;;;;;;5115698;28;20016;-75
2022/08/07 04:18:13;;;;;;;6.57;4.65;;;;;;;;;;5097209;28;20023;-75
2022/08/07 04:20:40;;;;;;;9.43;5.50;;;;;;;;;;5115656;28;20031;-74
2022/08/07 04:23:06;;;;;;;8.95;4.95;;;;;;;;;;5115457;28;20032;-74
2022/08/07 04:25:33;;;;;;;7.90;4.90;;;;;;;;;;5115553;28;20015;-75
2022/08/07 04:28:00;;;;;;;10.40;4.82;;;;;;;;;;5115411;28;20051;-74
2022/08/07 04:30:26;;;;;;;7.63;4.65;;;;;;;;;;5115550;28;20355;-75
2022/08/07 04:32:52;;;;;;;7.93;5.05;;;;;;;;;;5115079;28;20537;-74
2022/08/07 04:35:18;;;;;;;13.73;5.55;;;;;;;;;;5116047;28;20028;-77
2022/08/07 04:37:44;;;;;;;8.02;5.13;;;;;;;;;;5115801;28;20023;-77
2022/08/07 04:40:10;;;;;;;13.98;5.38;;;;;;;;;;5115944;28;20415;-77
2022/08/07 04:42:36;;;;;;;9.40;5.65;;;;;;;;;;5116038;28;20023;-77
2022/08/07 04:45:05;;;;;;;9.90;5.20;;;;;;;;;;5115907;28;20030;-77
2022/08/07 04:47:51;;;;;;;10.77;5.20;;;;;;;;;;5115936;28;20016;-77
2022/08/07 04:50:28;;;;;;;12.30;5.43;;;;;;;;;;5116067;28;20036;-77
2022/08/07 04:53:03;;;;;;;9.88;5.40;;;;;;;;;;5115753;28;20505;-77
2022/08/07 04:55:50;;;;;;;7.90;4.82;;;;;;;;;;5114303;28;20060;-77
2022/08/07 04:58:22;;;;;;;9.80;5.30;;;;;;;;;;5115221;28;20084;-77
2022/08/07 05:00:48;;;;;;;9.40;5.10;;;;;;;;;;5115760;28;20036;-77
2022/08/07 05:03:35;;;;;;;9.77;5.32;;;;;;;;;;5115685;28;20057;-77
2022/08/07 05:06:07;;;;;;;8.35;5.40;;;;;;;;;;5114035;28;20438;-77
2022/08/07 05:08:45;;;;;;;11.27;5.03;;;;;;;;;;5114833;28;20088;-77
2022/08/07 05:11:19;;;;;;;9.50;5.28;;;;;;;;;;5104309;28;20027;-77
2022/08/07 05:13:48;;;;;;;12.10;5.50;;;;;;;;;;5114753;28;20488;-77
2022/08/07 05:16:15;;;;;;;12.13;5.47;;;;;;;;;;5114925;28;20373;-77
2022/08/07 05:19:01;;;;;;;16.40;6.05;;;;;;;;;;5114839;28;20066;-77
2022/08/07 05:21:29;;;;;;;12.32;5.80;;;;;;;;;;5114628;28;20465;-77
2022/08/07 05:24:03;;;;;;;13.30;5.60;;;;;;;;;;5114636;28;20671;-77
2022/08/07 05:26:32;;;;;;;8.52;4.95;;;;;;;;;;5112007;28;20076;-77
2022/08/07 05:28:59;;;;;;;11.98;5.43;;;;;;;;;;5114671;28;20076;-77
2022/08/07 05:31:27;;;;;;;12.70;5.07;;;;;;;;;;5114642;28;20469;-77
2022/08/07 05:33:54;;;;;;;10.85;6.13;;;;;;;;;;5114518;28;20034;-77
2022/08/07 05:36:21;;;;;;;12.63;5.90;;;;;;;;;;5114575;28;20028;-77
2022/08/07 05:38:47;;;;;;;11.13;6.07;;;;;;;;;;5106364;28;20024;-77
2022/08/07 05:41:14;;;;;;;20.40;5.68;;;;;;;;;;5114718;28;20023;-77
2022/08/07 05:43:40;;;;;;;11.57;5.65;;;;;;;;;;5114282;28;20500;-77
2022/08/07 05:46:07;;;;;;;14.15;5.95;;;;;;;;;;5114252;28;20543;-77
2022/08/07 05:48:33;;;;;;;12.95;5.82;;;;;;;;;;5114132;28;20454;-77
2022/08/07 05:51:01;;;;;;;10.10;5.97;;;;;;;;;;5114115;28;20102;-77
2022/08/07 05:53:27;;;;;;;14.35;6.78;;;;;;;;;;5114004;28;20051;-77
2022/08/07 05:55:54;;;;;;;21.38;6.80;;;;;;;;;;5113616;28;20028;-77
2022/08/07 05:58:21;;;;;;;13.20;6.32;;;;;;;;;;5114159;28;20027;-77
2022/08/07 06:00:48;;;;;;;10.57;6.35;;;;;;;;;;5114245;28;20027;-77
2022/08/07 06:03:15;;;;;;;13.77;6.30;;;;;;;;;;5114003;28;20055;-77
2022/08/07 06:05:42;;;;;;;8.43;5.88;;;;;;;;;;5113510;28;20102;-78
2022/08/07 06:08:08;;;;;;;15.32;6.60;;;;;;;;;;5113919;28;20076;-77
2022/08/07 06:10:36;;;;;;;10.40;6.25;;;;;;;;;;5113984;28;20092;-77
2022/08/07 06:13:02;;;;;;;10.77;6.68;;;;;;;;;;5113976;28;20079;-77
2022/08/07 06:15:29;;;;;;;10.48;6.78;;;;;;;;;;5113768;28;20020;-77
2022/08/07 06:17:55;;;;;;;9.43;6.45;;;;;;;;;;5113689;28;20019;-77
2022/08/07 06:20:23;;;;;;;15.00;7.40;;;;;;;;;;5113766;28;20023;-77
2022/08/07 06:22:50;;;;;;;14.23;6.47;;;;;;;;;;5113720;28;20540;-77
2022/08/07 06:25:16;;;;;;;13.68;6.55;;;;;;;;;;5094202;28;20027;-77
2022/08/07 06:27:42;;;;;;;11.38;6.80;;;;;;;;;;5093267;28;20024;-77
2022/08/07 06:30:08;;;;;;;11.25;6.15;;;;;;;;;;5093052;28;20532;-77
2022/08/07 06:32:34;;;;;;;13.65;6.35;;;;;;;;;;5093161;28;20032;-77
2022/08/07 06:35:00;;;;;;;14.02;6.80;;;;;;;;;;5093402;28;20035;-76
2022/08/07 06:37:26;;;;;;;14.35;7.10;;;;;;;;;;5092710;28;20027;-77
2022/08/07 06:39:52;;;;;;;12.43;7.53;;;;;;;;;;5111169;28;20073;-77
2022/08/07 06:42:21;;;;;;;10.88;6.88;;;;;;;;;;5112517;28;20023;-77
2022/08/07 06:44:49;;;;;;;14.68;7.00;;;;;;;;;;5108474;28;20015;-77
2022/08/07 06:47:15;;;;;;;11.15;6.93;;;;;;;;;;5112826;28;20043;-77
2022/08/07 06:49:42;;;;;;;19.98;7.38;;;;;;;;;;5112912;28;20024;-77
2022/08/07 06:52:08;;;;;;;13.50;6.82;;;;;;;;;;5112455;28;20070;-78
2022/08/07 06:54:34;;;;;;;10.57;6.85;;;;;;;;;;5112288;28;20027;-78
2022/08/07 06:57:01;;;;;;;9.68;6.28;;;;;;;;;;5112212;28;20072;-78
2022/08/07 06:59:30;;;;;;;10.45;5.60;;;;;;;;;;5112526;28;20024;-77
2022/08/07 07:01:57;;;;;;;12.98;6.45;;;;;;;;;;5112597;28;20027;-77
2022/08/07 07:04:23;;;;;;;8.85;6.00;;;;;;;;;;5112535;28;20019;-77
2022/08/07 07:06:49;;;;;;;10.23;5.78;;;;;;;;;;5111631;28;20358;-77
2022/08/07 07:09:20;;;;;;;10.43;5.78;;;;;;;;;;5112554;28;20103;-77
2022/08/07 07:12:04;;;;;;;8.45;4.80;;;;;;;;;;5112397;28;20649;-77
2022/08/07 07:14:34;;;;;;;11.13;5.32;;;;;;;;;;5112399;28;20030;-78
2022/08/07 07:17:04;;;;;;;10.27;4.82;;;;;;;;;;5112601;28;20019;-78
2022/08/07 07:19:31;;;;;;;6.45;4.47;;;;;;;;;;5112588;28;20023;-78
2022/08/07 07:21:58;;;;;;;7.78;5.15;;;;;;;;;;5112197;28;20066;-78
2022/08/07 07:24:24;;;;;;;8.48;4.90;;;;;;;;;;5112301;28;20030;-77
2022/08/07 07:26:52;;;;;;;9.90;4.65;;;;;;;;;;5112382;28;20547;-78
2022/08/07 07:29:20;;;;;;;8.05;4.05;;;;;;;;;;5111961;28;20019;-78
2022/08/07 07:31:47;;;;;;;6.72;4.28;;;;;;;;;;5111410;28;20015;-77
2022/08/07 07:34:16;;;;;;;7.88;4.88;;;;;;;;;;5111406;28;20034;-77
2022/08/07 07:36:43;;;;;;;9.82;5.00;;;;;;;;;;5111289;28;20020;-78
2022/08/07 07:39:10;;;;;;;9.20;5.97;;;;;;;;;;5111370;28;20069;-78
2022/08/07 07:41:37;;;;;;;13.10;5.68;;;;;;;;;;5111164;28;20031;-77
2022/08/07 07:44:04;;;;;;;11.18;5.70;;;;;;;;;;5111010;28;20027;-77
2022/08/07 07:46:31;;;;;;;11.88;5.80;;;;;;;;;;5111263;28;20016;-77
2022/08/07 07:48:58;;;;;;;7.57;4.80;;;;;;;;;;5110978;28;20031;-77
2022/08/07 07:51:24;;;;;;;7.70;4.47;;;;;;;;;;5111011;28;20080;-77
2022/08/07 07:53:50;;;;;;;9.65;4.55;;;;;;;;;;5111170;28;20089;-77
2022/08/07 07:56:16;;;;;;;6.68;3.90;;;;;;;;;;5111197;28;20019;-77
2022/08/07 07:58:43;;;;;;;7.85;4.40;;;;;;;;;;5111037;28;20012;-77
2022/08/07 08:01:10;;;;;;;4.90;3.22;;;;;;;;;;5092762;28;20020;-77
2022/08/07 08:03:37;;;;;;;6.25;4.13;;;;;;;;;;5111236;28;20019;-77
2022/08/07 08:06:03;;;;;;;5.80;3.83;;;;;;;;;;5111016;28;20453;-77
2022/08/07 08:08:31;;;;;;;9.20;3.72;;;;;;;;;;5111035;28;20107;-77
2022/08/07 08:10:59;;;;;;;4.72;3.78;;;;;;;;;;5111208;28;20042;-77
2022/08/07 08:13:26;;;;;;;10.95;3.78;;;;;;;;;;5110627;28;20015;-78
2022/08/07 08:15:52;;;;;;;8.77;4.30;;;;;;;;;;5111114;28;20052;-78
2022/08/07 08:18:19;;;;;;;6.25;3.80;;;;;;;;;;5112687;28;20526;-78
2022/08/07 08:20:46;;;;;;;6.50;3.22;;;;;;;;;;5112469;28;20415;-77
2022/08/07 08:28:48;;;;;;;5.18;3.60;;;;;;;;;;5109709;28;20034;-77
2022/08/07 08:31:22;;;;;;;4.57;2.78;;;;;;;;;;5115082;28;20034;-77
2022/08/07 08:33:50;;;;;;;4.90;3.30;;;;;;;;;;5112643;28;20028;-78
2022/08/07 08:36:18;;;;;;;4.53;2.90;;;;;;;;;;5115028;28;20088;-78
2022/08/07 08:38:46;;;;;;;4.03;3.05;;;;;;;;;;5114959;28;20439;-78
2022/08/07 08:41:18;;;;;;;6.28;3.08;;;;;;;;;;5110631;28;20016;-78
2022/08/07 08:43:50;;;;;;;4.30;2.65;;;;;;;;;;5114592;28;20806;-78
2022/08/07 08:46:25;;;;;;;9.27;3.83;;;;;;;;;;5114310;28;20036;-77
2022/08/07 08:49:06;;;;;;;6.25;3.20;;;;;;;;;;5114519;28;20027;-78
2022/08/07 08:51:38;;;;;;;4.82;2.72;;;;;;;;;;5113156;28;20040;-78
2022/08/07 08:54:07;;;;;;;4.28;2.80;;;;;;;;;;5114661;28;20216;-78
2022/08/07 08:56:36;;;;;;;7.20;2.78;;;;;;;;;;5114611;28;20373;-78
2022/08/07 08:59:24;;;;;;;5.68;2.83;;;;;;;;;;5114680;28;20390;-78
2022/08/07 09:01:56;;;;;;;4.22;2.28;;;;;;;;;;5128315;27;20031;-78
2022/08/07 09:04:29;;;;;;;6.35;2.70;;;;;;;;;;5114806;28;20023;-78
2022/08/07 09:07:01;;;;;;;4.82;2.50;;;;;;;;;;5115055;28;20023;-79
2022/08/07 09:09:47;;;;;;;4.15;2.92;;;;;;;;;;5115144;28;20050;-78
2022/08/07 09:12:32;;;;;;;4.15;2.67;;;;;;;;;;5114636;28;20478;-77
2022/08/07 09:15:04;;;;;;;6.65;2.50;;;;;;;;;;5114993;28;20027;-80
2022/08/07 09:17:33;;;;;;;4.53;2.25;;;;;;;;;;5114950;28;20023;-78
2022/08/07 09:19:59;;;;;;;8.27;2.30;;;;;;;;;;5114652;28;20035;-79
2022/08/07 09:22:33;;;;;;;4.07;2.35;;;;;;;;;;5114170;28;20023;-78
2022/08/07 09:25:18;;;;;;;4.53;2.45;;;;;;;;;;5114247;28;20024;-78
2022/08/07 09:28:04;;;;;;;5.43;2.60;;;;;;;;;;5114218;28;20024;-78
2022/08/07 09:30:36;;;;;;;3.63;1.77;;;;;;;;;;5111507;28;20377;-78
2022/08/07 09:33:16;;;;;;;2.75;1.70;;;;;;;;;;5105734;28;20039;-78
2022/08/07 09:35:42;;;;;;;3.15;1.70;;;;;;;;;;5111436;28;20031;-78
2022/08/07 09:38:11;;;;;;;4.78;1.70;;;;;;;;;;5112169;28;20026;-78
2022/08/07 09:40:46;;;;;;;4.60;1.80;;;;;;;;;;5113805;28;20860;-78
2022/08/07 09:43:37;;;;;;;3.28;1.70;;;;;;;;;;5113706;28;20080;-78
2022/08/07 09:46:03;;;;;;;4.97;1.77;;;;;;;;;;5094498;28;20031;-78
2022/08/07 09:48:32;;;;;;;4.53;1.80;;;;;;;;;;5113299;28;20020;-78
2022/08/07 09:51:01;;;;;;;5.10;2.10;;;;;;;;;;5113141;28;20100;-78
2022/08/07 09:53:28;;;;;;;2.88;1.67;;;;;;;;;;5094197;28;20393;-78
2022/08/07 09:56:03;;;;;;;3.42;2.13;;;;;;;;;;5113325;28;20039;-77
2022/08/07 09:58:29;;;;;;;3.42;1.95;;;;;;;;;;5112439;28;20016;-78
2022/08/07 10:00:55;;;;;;;3.55;1.65;;;;;;;;;;5112570;27;20077;-78
2022/08/07 10:03:51;;;;;;;2.80;1.42;;;;;;;;;;5113474;28;20055;-78
2022/08/07 10:06:29;;;;;;;2.92;1.58;;;;;;;;;;5023598;28;20038;-77
2022/08/07 10:09:14;;;;;;;2.75;1.50;;;;;;;;;;5113622;28;20028;-78
2022/08/07 10:11:54;;;;;;;3.40;1.90;;;;;;;;;;5113401;28;20024;-78
2022/08/07 10:14:25;;;;;;;3.90;2.03;;;;;;;;;;5113559;28;20102;-77
2022/08/07 10:16:59;;;;;;;6.78;2.08;;;;;;;;;;5112694;28;20027;-77
2022/08/07 10:19:26;;;;;;;2.83;1.83;;;;;;;;;;5111354;28;20034;-78
2022/08/07 10:21:54;;;;;;;5.00;2.05;;;;;;;;;;5113397;28;20024;-79
2022/08/07 10:24:25;;;;;;;4.43;2.10;;;;;;;;;;5108804;28;20038;-80
2022/08/07 10:26:57;;;;;;;2.42;1.75;;;;;;;;;;5113763;28;20046;-79
2022/08/07 10:29:23;;;;;;;;;;;;;;;;;;5114162;28;20076;-79
2022/08/07 10:31:51;;;;;;;3.22;1.70;;;;;;;;;;5113357;28;20062;-79
2022/08/07 10:34:17;;;;;;;4.13;1.58;;;;;;;;;;5113379;28;20354;-80
2022/08/07 10:36:50;;;;;;;2.58;1.60;;;;;;;;;;5112683;28;20027;-79
2022/08/07 10:39:23;;;;;;;2.28;1.50;;;;;;;;;;5112603;28;20068;-79
2022/08/07 10:41:54;;;;;;;4.43;1.58;;;;;;;;;;5111428;28;20055;-79
2022/08/07 10:44:34;;;;;;;3.00;1.55;;;;;;;;;;5112784;28;20034;-78
2022/08/07 10:47:22;;;;;;;3.33;1.35;;;;;;;;;;5113058;28;20020;-79
2022/08/07 10:50:03;;;;;;;2.45;1.25;;;;;;;;;;5112257;28;20526;-80
2022/08/07 10:52:52;;;;;;;5.27;1.70;;;;;;;;;;5112229;28;20046;-79
2022/08/07 10:55:26;;;;;;;3.50;1.70;;;;;;;;;;5101407;28;20269;-79
2022/08/07 10:58:01;;;;;;;4.80;1.90;;;;;;;;;;5112863;28;20110;-80
2022/08/07 11:00:30;;;;;;;5.10;1.60;;;;;;;;;;5112058;28;20026;-80
2022/08/07 11:02:56;;;;;;;6.55;2.03;;;;;;;;;;5112525;28;20020;-80
2022/08/07 11:05:31;;;;;;;4.63;1.73;;;;;;;;;;5113069;28;20412;-80
2022/08/07 11:08:17;;;;;;;2.72;1.40;;;;;;;;;;5111708;28;20355;-80
2022/08/07 11:10:46;;;;;;;5.05;1.55;;;;;;;;;;5113126;28;20238;-79
2022/08/07 11:13:20;;;;;;;4.70;1.60;;;;;;;;;;5112981;28;20020;-80
2022/08/07 11:15:48;;;;;;;3.20;1.45;;;;;;;;;;5113056;28;20374;-80
2022/08/07 11:18:14;;;;;;;2.50;1.40;;;;;;;;;;5113085;28;20011;-80
2022/08/07 11:20:59;;;;;;;2.95;1.63;;;;;;;;;;5112948;28;20156;-80
2022/08/07 11:23:31;;;;;;;3.58;1.50;;;;;;;;;;5112851;28;20031;-79
2022/08/07 11:26:06;;;;;;;4.88;1.45;;;;;;;;;;5112905;28;20111;-80
2022/08/07 11:28:39;;;;;;;3.15;1.27;;;;;;;;;;5112871;28;20031;-80
2022/08/07 11:31:24;;;;;;;4.50;2.03;;;;;;;;;;5112654;28;20099;-80
2022/08/07 11:34:16;;;;;;;3.42;1.50;;;;;;;;;;5112681;28;20032;-80
2022/08/07 11:37:04;;;;;;;3.28;1.58;;;;;;;;;;5090456;28;20032;-79
2022/08/07 11:39:42;;;;;;;5.05;1.60;;;;;;;;;;5112454;28;20110;-80
2022/08/07 11:42:11;;;;;;;5.03;1.67;;;;;;;;;;5112894;28;20055;-81
2022/08/07 11:45:16;;;;;;;2.17;1.38;;;;;;;;;;5113189;28;20462;-82
2022/08/07 11:47:45;;;;;;;3.88;1.20;;;;;;;;;;5029613;28;20389;-83
2022/08/07 11:50:22;;;;;;;2.50;1.40;;;;;;;;;;5013728;28;20029;-83
2022/08/07 11:52:57;;;;;;;3.28;1.20;;;;;;;;;;5053372;28;20054;-83
2022/08/07 11:55:23;;;;;;;1.63;1.20;;;;;;;;;;5075772;28;20028;-81
2022/08/07 11:58:07;;;;;;;3.05;1.30;;;;;;;;;;5076530;28;20021;-83
2022/08/07 12:00:52;;;;;;;3.10;1.17;;;;;;;;;;5062808;28;20020;-82
2022/08/07 12:03:41;;;;;;;3.17;1.50;;;;;;;;;;5073514;28;20028;-83
2022/08/07 12:06:16;;;;;;;3.58;1.30;;;;;;;;;;5076186;28;20128;-83
2022/08/07 12:08:53;;;;;;;2.10;1.13;;;;;;;;;;5074829;28;20433;-82
2022/08/07 12:11:24;;;;;;;3.33;1.40;;;;;;;;;;5076481;28;20436;-82
2022/08/07 12:13:50;;;;;;;7.40;1.48;;;;;;;;;;5076395;28;20457;-82
2022/08/07 12:16:17;;;;;;;2.83;1.40;;;;;;;;;;5076084;28;20055;-83
2022/08/07 12:18:48;;;;;;;3.40;1.20;;;;;;;;;;5075827;28;20489;-80
2022/08/07 12:21:17;;;;;;;2.20;1.20;;;;;;;;;;5073995;28;20021;-79
2022/08/07 12:24:15;;;;;;;3.67;1.73;;;;;;;;;;5073318;28;20020;-79
2022/08/07 12:26:48;;;;;;;2.17;1.13;;;;;;;;;;5039547;28;20089;-79
2022/08/07 12:29:28;;;;;;;2.92;1.92;;;;;;;;;;5071922;28;20025;-79
2022/08/07 12:31:53;;;;;;;2.22;1.25;;;;;;;;;;5071391;28;20028;-79
2022/08/07 12:34:20;;;;;;;7.88;1.20;;;;;;;;;;5072949;28;20051;-79
2022/08/07 12:36:46;;;;;;;2.67;1.52;;;;;;;;;;5073629;28;20025;-79
2022/08/07 12:39:13;;;;;;;2.05;1.20;;;;;;;;;;5074108;28;20036;-79
2022/08/07 12:41:40;;;;;;;3.72;1.40;;;;;;;;;;5074518;28;20024;-79
2022/08/07 12:44:07;;;;;;;2.55;1.10;;;;;;;;;;5075079;28;20040;-79
2022/08/07 12:46:52;;;;;;;1.85;1.35;;;;;;;;;;5074779;28;20078;-79
2022/08/07 12:49:37;;;;;;;1.10;0.90;;;;;;;;;;5074855;28;20036;-79
2022/08/07 12:52:07;;;;;;;3.92;1.15;;;;;;;;;;5090120;28;20048;-79
2022/08/07 12:54:47;;;;;;;4.28;1.60;;;;;;;;;;5114128;28;20035;-80
2022/08/07 12:57:16;;;;;;;4.78;1.88;;;;;;;;;;5114316;28;20481;-80
2022/08/07 12:59:42;;;;;;;2.90;1.38;;;;;;;;;;5114776;28;20023;-80
2022/08/07 13:02:14;;;;;;;1.35;0.82;;;;;;;;;;5096437;28;20031;-80
2022/08/07 13:04:41;;;;;;;1.27;0.80;;;;;;;;;;5112739;28;20098;-80
2022/08/07 13:07:32;;;;;;;4.70;0.82;;;;;;;;;;5113638;28;20031;-79
2022/08/07 13:10:02;;;;;;;0.90;0.80;;;;;;;;;;5113115;28;20031;-79
2022/08/07 13:12:37;;;;;;;5.68;1.13;;;;;;;;;;5111894;28;20102;-79
2022/08/07 13:15:27;;;;;;;1.73;0.90;;;;;;;;;;5114633;28;20015;-80
2022/08/07 13:18:02;;;;;;;5.07;3.08;;;;;;;;;;5101826;28;20035;-80
2022/08/07 13:20:39;;;;;;;2.35;1.10;;;;;;;;;;5114715;28;20051;-80
2022/08/07 13:23:17;;;;;;;3.28;0.88;;;;;;;;;;5114555;28;20042;-81
2022/08/07 13:25:46;;;;;;;1.75;1.00;;;;;;;;;;5114101;28;20088;-80
2022/08/07 13:28:30;;;;;;;3.67;1.40;;;;;;;;;;5114235;28;20036;-79
2022/08/07 13:31:02;;;;;;;3.13;1.27;;;;;;;;;;5113588;28;20473;-80
2022/08/07 13:33:38;;;;;;;1.98;1.27;;;;;;;;;;5114165;28;20513;-80
2022/08/07 13:36:14;;;;;;;4.32;1.13;;;;;;;;;;5115056;28;20038;-80
2022/08/07 13:39:00;;;;;;;3.80;1.00;;;;;;;;;;5114580;28;20420;-79
2022/08/07 13:41:49;;;;;;;3.88;1.10;;;;;;;;;;5096982;28;20046;-79
2022/08/07 13:44:18;;;;;;;2.15;1.30;;;;;;;;;;5095426;28;20011;-79
2022/08/07 13:46:45;;;;;;;3.65;1.40;;;;;;;;;;5113604;28;20023;-79
2022/08/07 13:49:12;;;;;;;3.58;1.80;;;;;;;;;;5113911;28;20488;-80
2022/08/07 13:51:41;;;;;;;1.90;1.30;;;;;;;;;;5113594;28;20126;-82
2022/08/07 13:54:09;;;;;;;2.40;1.60;;;;;;;;;;5115182;28;20454;-81
2022/08/07 13:56:36;;;;;;;39.78;3.38;;;;;;;;;;5114510;28;20028;-82
2022/08/07 13:59:22;;;;;;;2.72;1.95;;;;;;;;;;5114625;28;21346;-80
2022/08/07 14:01:56;;;;;;;3.15;1.40;;;;;;;;;;5127717;27;20123;-84
2022/08/07 14:04:25;;;;;;;2.97;1.45;;;;;;;;;;5111588;28;20379;-82
2022/08/07 14:06:52;;;;;;;2.13;1.30;;;;;;;;;;5114604;28;20023;-80
2022/08/07 14:09:23;;;;;;;4.43;1.60;;;;;;;;;;5114618;28;20110;-80
2022/08/07 14:11:52;;;;;;;3.15;1.83;;;;;;;;;;5114437;28;20376;-83
2022/08/07 14:14:19;;;;;;;2.58;1.90;;;;;;;;;;5115092;28;20413;-81
2022/08/07 14:16:47;;;;;;;5.93;2.08;;;;;;;;;;5114318;28;20028;-81
2022/08/07 14:19:28;;;;;;;2.83;2.00;;;;;;;;;;5114765;28;20024;-81
2022/08/07 14:21:55;;;;;;;4.80;3.07;;;;;;;;;;5114491;28;20092;-81
2022/08/07 14:24:21;;;;;;;3.17;2.05;;;;;;;;;;5114959;28;20023;-82
2022/08/07 14:26:51;;;;;;;3.90;2.65;;;;;;;;;;5114745;28;20050;-82
2022/08/07 14:29:24;;;;;;;4.18;2.03;;;;;;;;;;5114367;28;20119;-82
2022/08/07 14:31:51;;;;;;;5.57;1.90;;;;;;;;;;5114041;28;20028;-82
2022/08/07 14:34:19;;;;;;;3.90;1.73;;;;;;;;;;5112528;28;20024;-83
2022/08/07 14:36:45;;;;;;;4.05;1.70;;;;;;;;;;5114181;28;20449;-81
2022/08/07 14:39:12;;;;;;;3.40;2.00;;;;;;;;;;5114784;28;20071;-82
2022/08/07 14:41:38;;;;;;;4.30;1.95;;;;;;;;;;5114016;28;20023;-81
2022/08/07 14:44:07;;;;;;;5.88;1.70;;;;;;;;;;5114390;28;20530;-81
2022/08/07 14:46:34;;;;;;;3.47;1.55;;;;;;;;;;5113968;28;20420;-82
2022/08/07 14:49:00;;;;;;;3.97;1.38;;;;;;;;;;5114603;28;20472;-82
2022/08/07 14:51:28;;;;;;;3.13;1.50;;;;;;;;;;5113863;28;20031;-80
2022/08/07 14:53:56;;;;;;;5.63;1.40;;;;;;;;;;5114013;28;20202;-80
2022/08/07 14:56:23;;;;;;;5.82;1.30;;;;;;;;;;5116260;27;20023;-80
2022/08/07 14:58:53;;;;;;;2.88;1.08;;;;;;;;;;5122597;27;20065;-80
2022/08/07 15:01:19;;;;;;;4.20;1.15;;;;;;;;;;5126426;27;20089;-82
2022/08/07 15:03:46;;;;;;;1.38;1.05;;;;;;;;;;5133824;27;20023;-80